createdAt,value
2022-12-15T00:02:00.545Z,12.40
2022-12-15T00:05:04.987Z,12.57
2022-12-15T00:08:08.890Z,12.10
2022-12-15T00:11:14.144Z,8.75
2022-12-15T00:14:18.542Z,11.15
2022-12-15T00:17:22.629Z,11.75
2022-12-15T00:20:27.333Z,10.50
2022-12-15T00:23:31.770Z,10.77
2022-12-15T00:26:35.938Z,13.05
2022-12-15T00:29:40.219Z,10.50
2022-12-15T00:32:44.534Z,10.43
2022-12-15T00:35:48.310Z,11.85
2022-12-15T00:38:43.582Z,10.35
2022-12-15T00:41:28.875Z,10.63
2022-12-15T00:44:18.913Z,10.70
2022-12-15T00:47:06.874Z,11.25
2022-12-15T00:50:11.036Z,10.20
2022-12-15T00:53:15.069Z,8.32
2022-12-15T00:56:19.050Z,10.95
2022-12-15T00:59:23.090Z,10.20
2022-12-15T01:02:27.198Z,9.52
2022-12-15T01:05:31.551Z,11.52
2022-12-15T01:08:35.435Z,11.90
2022-12-15T01:11:39.658Z,10.82
2022-12-15T01:14:44.034Z,9.73
2022-12-15T01:17:48.992Z,11.30
2022-12-15T01:20:34.792Z,9.85
2022-12-15T01:23:20.306Z,10.45
2022-12-15T01:26:06.755Z,8.48
2022-12-15T01:28:52.066Z,12.07
2022-12-15T01:31:37.843Z,11.55
2022-12-15T01:34:23.815Z,12.85
2022-12-15T01:37:09.230Z,11.93
2022-12-15T01:40:13.393Z,11.18
2022-12-15T01:42:59.005Z,13.98
2022-12-15T01:45:49.768Z,14.02
2022-12-15T01:48:58.252Z,11.05
2022-12-15T01:51:48.518Z,9.35
2022-12-15T01:54:52.866Z,10.82
2022-12-15T01:57:39.211Z,9.52
2022-12-15T02:00:24.833Z,10.00
2022-12-15T02:03:12.128Z,10.20
2022-12-15T02:05:58.311Z,8.68
2022-12-15T02:08:47.534Z,11.98
2022-12-15T02:12:01.880Z,10.88
2022-12-15T02:14:54.065Z,10.48
2022-12-15T02:18:09.057Z,9.95
2022-12-15T02:21:14.181Z,9.70
2022-12-15T02:24:18.653Z,9.85
2022-12-15T02:27:13.713Z,10.32
2022-12-15T02:30:21.243Z,12.02
2022-12-15T02:33:11.506Z,12.00
2022-12-15T02:35:59.671Z,10.85
2022-12-15T02:38:45.723Z,11.15
2022-12-15T02:41:36.468Z,11.25
2022-12-15T02:44:28.970Z,11.10
2022-12-15T02:47:28.366Z,9.82
2022-12-15T02:50:29.857Z,10.68
2022-12-15T02:53:28.050Z,10.60
2022-12-15T02:56:25.761Z,10.68
2022-12-15T02:59:16.259Z,11.30
2022-12-15T03:02:06.476Z,10.65
2022-12-15T03:04:53.358Z,10.32
2022-12-15T03:07:39.009Z,11.38
2022-12-15T03:10:25.864Z,11.05
2022-12-15T03:13:11.314Z,10.73
2022-12-15T03:15:58.371Z,11.82
2022-12-15T03:18:44.347Z,11.60
2022-12-15T03:21:30.206Z,10.07
2022-12-15T03:24:15.514Z,11.68
2022-12-15T03:27:01.050Z,11.73
2022-12-15T03:29:46.343Z,11.35
2022-12-15T03:32:31.900Z,9.90
2022-12-15T03:35:17.422Z,12.38
2022-12-15T03:38:02.683Z,12.57
2022-12-15T03:40:48.325Z,14.77
2022-12-15T03:43:34.502Z,13.40
2022-12-15T03:46:20.345Z,12.75
2022-12-15T03:49:06.019Z,10.85
2022-12-15T03:51:52.420Z,12.00
2022-12-15T03:54:37.724Z,12.30
2022-12-15T03:57:23.329Z,12.90
2022-12-15T04:00:11.393Z,11.55
2022-12-15T04:03:00.302Z,12.27
2022-12-15T04:05:45.643Z,11.65
2022-12-15T04:08:31.084Z,11.57
2022-12-15T04:11:17.019Z,11.95
2022-12-15T04:14:02.811Z,12.48
2022-12-15T04:16:48.176Z,11.50
2022-12-15T04:19:52.038Z,11.98
2022-12-15T04:22:41.846Z,12.82
2022-12-15T04:25:47.154Z,11.57
2022-12-15T04:28:51.562Z,11.63
2022-12-15T04:31:55.859Z,11.05
2022-12-15T04:34:59.914Z,11.23
2022-12-15T04:38:04.024Z,11.27
2022-12-15T04:41:08.036Z,10.90
2022-12-15T04:44:13.753Z,10.73
2022-12-15T04:47:18.231Z,11.48
2022-12-15T04:50:23.376Z,11.80
2022-12-15T04:53:36.667Z,10.20
2022-12-15T04:56:41.456Z,12.68
2022-12-15T04:59:45.789Z,14.77
2022-12-15T05:02:49.956Z,14.60
2022-12-15T05:05:54.312Z,12.73
2022-12-15T05:08:58.482Z,12.88
2022-12-15T05:12:02.665Z,15.13
2022-12-15T05:15:07.047Z,15.77
2022-12-15T05:18:11.065Z,16.08
2022-12-15T05:21:17.109Z,19.65
2022-12-15T05:24:21.395Z,18.35
2022-12-15T05:27:26.877Z,18.30
2022-12-15T05:30:31.211Z,18.33
2022-12-15T05:33:17.357Z,15.75
2022-12-15T05:36:04.333Z,16.80
2022-12-15T05:38:51.232Z,15.80
2022-12-15T05:41:36.972Z,17.80
2022-12-15T05:44:23.730Z,14.65
2022-12-15T05:47:09.469Z,14.20
2022-12-15T05:49:55.246Z,13.05
2022-12-15T05:52:44.967Z,14.25
2022-12-15T05:55:33.519Z,13.55
2022-12-15T05:58:19.050Z,14.25
2022-12-15T06:01:15.784Z,12.68
2022-12-15T06:04:02.000Z,22.48
2022-12-15T06:06:47.935Z,26.33
2022-12-15T06:09:33.842Z,17.98
2022-12-15T06:12:19.331Z,16.17
2022-12-15T06:15:05.530Z,18.25
2022-12-15T06:17:53.630Z,17.92
2022-12-15T06:20:40.556Z,33.08
2022-12-15T06:23:29.330Z,37.67
2022-12-15T06:29:22.498Z,26.95
2022-12-15T06:32:08.166Z,22.73
2022-12-15T06:34:54.281Z,27.63
2022-12-15T06:37:39.987Z,22.80
2022-12-15T06:40:25.547Z,25.63
2022-12-15T06:43:11.888Z,25.10
2022-12-15T06:45:58.027Z,24.70
2022-12-15T06:48:45.719Z,25.88
2022-12-15T06:51:32.331Z,33.00
2022-12-15T06:54:18.332Z,30.88
2022-12-15T06:57:04.499Z,21.95
2022-12-15T06:59:49.830Z,22.48
2022-12-15T07:02:36.336Z,22.48
2022-12-15T07:05:22.734Z,21.65
2022-12-15T07:08:09.991Z,21.77
2022-12-15T07:10:55.464Z,20.63
2022-12-15T07:13:41.375Z,20.75
2022-12-15T07:16:27.013Z,24.88
2022-12-15T07:19:13.488Z,26.30
2022-12-15T07:22:01.505Z,26.58
2022-12-15T07:24:46.831Z,26.05
2022-12-15T07:27:32.923Z,27.98
2022-12-15T07:30:18.934Z,27.10
2022-12-15T07:33:05.884Z,27.80
2022-12-15T07:35:55.805Z,25.70
2022-12-15T07:38:42.353Z,26.85
2022-12-15T07:41:28.816Z,28.00
2022-12-15T07:44:15.204Z,23.48
2022-12-15T07:47:01.575Z,22.58
2022-12-15T07:49:47.924Z,20.52
2022-12-15T07:52:34.902Z,21.30
2022-12-15T07:55:37.230Z,20.48
2022-12-15T07:58:30.552Z,20.42
2022-12-15T08:01:16.650Z,19.20
2022-12-15T08:04:03.938Z,19.00
2022-12-15T08:06:51.203Z,22.85
2022-12-15T08:09:39.147Z,24.02
2022-12-15T08:12:24.907Z,25.83
2022-12-15T08:15:11.815Z,27.02
2022-12-15T08:17:57.528Z,23.20
2022-12-15T08:20:43.192Z,23.40
2022-12-15T08:23:29.240Z,19.17
2022-12-15T08:26:17.756Z,22.60
2022-12-15T08:32:12.122Z,26.83
2022-12-15T08:34:58.088Z,25.50
2022-12-15T08:37:45.428Z,25.30
2022-12-15T08:40:31.411Z,25.75
2022-12-15T08:43:17.397Z,25.77
2022-12-15T08:46:04.048Z,66.18
2022-12-15T08:48:50.867Z,58.55
2022-12-15T08:51:37.003Z,48.03
2022-12-15T08:54:23.015Z,48.47
2022-12-15T08:57:08.740Z,30.90
2022-12-15T08:59:54.697Z,31.30
2022-12-15T09:02:40.483Z,29.42
2022-12-15T09:05:27.095Z,32.15
2022-12-15T09:08:12.543Z,26.45
2022-12-15T09:10:59.625Z,34.28
2022-12-15T09:13:45.892Z,29.45
2022-12-15T09:16:31.906Z,28.75
2022-12-15T09:19:18.295Z,31.80
2022-12-15T09:22:05.962Z,32.00
2022-12-15T09:24:52.378Z,28.05
2022-12-15T09:27:39.856Z,28.70
2022-12-15T09:30:26.032Z,29.23
2022-12-15T09:33:12.179Z,31.05
2022-12-15T09:35:58.848Z,29.73
2022-12-15T09:38:45.003Z,50.55
2022-12-15T09:41:33.444Z,47.58
2022-12-15T09:44:21.377Z,32.20
2022-12-15T09:47:21.537Z,27.35
2022-12-15T09:50:12.040Z,30.30
2022-12-15T09:52:59.251Z,29.58
2022-12-15T09:55:48.992Z,33.85
2022-12-15T09:58:57.534Z,33.03
2022-12-15T10:01:43.889Z,32.53
2022-12-15T10:04:57.999Z,31.30
2022-12-15T10:07:46.741Z,28.83
2022-12-15T10:10:55.381Z,30.30
2022-12-15T10:14:13.152Z,30.73
2022-12-15T10:17:06.507Z,33.85
2022-12-15T10:20:01.978Z,33.90
2022-12-15T10:22:50.274Z,33.30
2022-12-15T10:25:37.091Z,35.40
2022-12-15T10:28:51.173Z,32.80
2022-12-15T10:32:10.841Z,31.48
2022-12-15T10:34:57.109Z,31.85
2022-12-15T10:37:42.913Z,32.45
2022-12-15T10:40:55.434Z,32.50
2022-12-15T10:43:44.249Z,31.40
2022-12-15T10:46:32.663Z,30.98
2022-12-15T10:49:18.866Z,46.03
2022-12-15T10:52:05.069Z,38.95
2022-12-15T10:54:53.111Z,40.00
2022-12-15T10:58:00.034Z,38.63
2022-12-15T11:00:46.639Z,33.92
2022-12-15T11:03:39.103Z,27.75
2022-12-15T11:06:28.838Z,21.67
2022-12-15T11:09:34.815Z,20.67
2022-12-15T11:12:44.033Z,17.33
2022-12-15T11:15:38.903Z,13.07
2022-12-15T11:18:44.419Z,13.90
2022-12-15T11:21:48.887Z,14.13
2022-12-15T11:24:55.076Z,13.70
2022-12-15T11:27:45.287Z,14.10
2022-12-15T11:30:39.991Z,13.15
2022-12-15T11:33:26.178Z,12.20
2022-12-15T11:36:39.558Z,12.13
2022-12-15T11:40:13.325Z,13.38
2022-12-15T11:43:14.482Z,13.57
2022-12-15T11:46:20.439Z,15.02
2022-12-15T11:49:42.555Z,17.08
2022-12-15T11:52:43.358Z,25.02
2022-12-15T11:55:47.633Z,20.02
2022-12-15T11:59:01.475Z,20.02
2022-12-15T12:01:55.474Z,19.10
2022-12-15T12:04:50.853Z,18.08
2022-12-15T12:07:47.175Z,21.75
2022-12-15T12:10:52.653Z,34.38
2022-12-15T12:14:41.433Z,35.85
2022-12-15T12:17:43.171Z,35.85
2022-12-15T12:21:13.225Z,26.30
2022-12-15T12:24:04.101Z,23.30
2022-12-15T12:27:10.593Z,24.58
2022-12-15T12:30:03.530Z,24.60
2022-12-15T12:33:00.020Z,20.80
2022-12-15T12:35:57.497Z,18.35
2022-12-15T12:38:56.278Z,15.88
2022-12-15T12:42:00.924Z,13.07
2022-12-15T12:44:47.001Z,12.95
2022-12-15T12:47:38.204Z,14.45
2022-12-15T12:50:30.251Z,13.65
2022-12-15T12:53:33.164Z,12.73
2022-12-15T12:56:42.980Z,15.55
2022-12-15T12:59:29.101Z,15.77
2022-12-15T13:02:14.878Z,14.65
2022-12-15T13:05:05.207Z,14.40
2022-12-15T13:08:06.352Z,14.20
2022-12-15T13:10:53.766Z,15.13
2022-12-15T13:13:51.013Z,16.95
2022-12-15T13:16:40.504Z,14.73
2022-12-15T13:19:59.774Z,13.93
2022-12-15T13:22:46.267Z,13.25
2022-12-15T13:25:42.994Z,15.13
2022-12-15T13:33:16.548Z,22.95
2022-12-15T13:36:02.818Z,15.43
2022-12-15T13:38:56.034Z,13.23
2022-12-15T13:45:50.614Z,12.35
2022-12-15T13:49:15.486Z,11.60
2022-12-15T13:52:04.144Z,12.68
2022-12-15T13:54:59.357Z,13.88
2022-12-15T13:58:07.486Z,12.95
2022-12-15T14:00:55.778Z,12.15
2022-12-15T14:04:06.227Z,16.15
2022-12-15T14:07:01.694Z,22.80
2022-12-15T14:09:50.538Z,20.25
2022-12-15T14:12:39.784Z,22.55
2022-12-15T14:15:33.046Z,21.25
2022-12-15T14:18:31.835Z,18.67
2022-12-15T14:21:23.245Z,17.55
2022-12-15T14:24:38.527Z,15.68
2022-12-15T14:27:31.163Z,15.68
2022-12-15T14:30:20.459Z,14.57
2022-12-15T14:33:15.271Z,18.85
2022-12-15T14:36:02.469Z,21.02
2022-12-15T14:38:54.081Z,15.35
2022-12-15T14:41:48.941Z,13.23
2022-12-15T14:44:39.375Z,16.13
2022-12-15T14:47:35.574Z,15.77
2022-12-15T14:50:25.229Z,16.55
2022-12-15T14:53:17.719Z,17.38
2022-12-15T14:59:20.924Z,17.30
2022-12-15T15:02:28.698Z,18.77
2022-12-15T15:05:27.439Z,22.23
2022-12-15T15:08:33.349Z,22.38
2022-12-15T15:11:48.330Z,20.73
2022-12-15T15:14:40.767Z,20.65
2022-12-15T15:17:30.432Z,20.33
2022-12-15T15:20:34.423Z,22.45
2022-12-15T15:23:21.094Z,23.35
2022-12-15T15:26:10.652Z,22.50
2022-12-15T15:28:57.134Z,24.42
2022-12-15T15:31:43.303Z,29.48
2022-12-15T15:34:29.135Z,30.70
2022-12-15T15:37:24.987Z,29.15
2022-12-15T15:40:14.783Z,22.50
2022-12-15T15:43:01.078Z,23.40
2022-12-15T15:45:49.408Z,24.13
2022-12-15T15:48:39.652Z,23.90
2022-12-15T15:51:27.370Z,25.63
2022-12-15T15:54:16.216Z,26.48
2022-12-15T15:57:02.291Z,22.77
2022-12-15T15:59:48.164Z,21.83
2022-12-15T16:02:33.819Z,22.92
2022-12-15T16:05:21.348Z,27.25
2022-12-15T16:08:09.507Z,30.08
2022-12-15T16:10:55.959Z,31.27
2022-12-15T16:13:41.607Z,28.83
2022-12-15T16:16:31.191Z,28.33
2022-12-15T16:19:17.219Z,31.33
2022-12-15T16:22:03.523Z,29.33
2022-12-15T16:24:50.842Z,26.55
2022-12-15T16:27:37.415Z,25.40
2022-12-15T16:30:26.151Z,23.98
2022-12-15T16:33:12.984Z,33.38
2022-12-15T16:35:59.452Z,31.67
2022-12-15T16:38:45.102Z,31.60
2022-12-15T16:41:31.371Z,21.08
2022-12-15T16:44:16.869Z,20.55
2022-12-15T16:47:02.400Z,22.50
2022-12-15T16:49:48.209Z,26.65
2022-12-15T16:52:34.363Z,26.52
2022-12-15T16:55:24.638Z,29.33
2022-12-15T16:58:15.202Z,26.13
2022-12-15T17:01:00.971Z,24.75
2022-12-15T17:03:47.348Z,24.65
2022-12-15T17:06:33.139Z,33.80
2022-12-15T17:09:22.932Z,27.92
2022-12-15T17:12:15.726Z,26.38
2022-12-15T17:15:02.563Z,26.70
2022-12-15T17:17:48.623Z,25.92
2022-12-15T17:20:34.435Z,24.08
2022-12-15T17:23:22.946Z,27.05
2022-12-15T17:26:28.725Z,27.30
2022-12-15T17:29:21.821Z,26.63
2022-12-15T17:32:13.654Z,34.17
2022-12-15T17:35:00.030Z,35.95
2022-12-15T17:37:46.182Z,55.92
2022-12-15T17:40:32.370Z,52.50
2022-12-15T17:43:21.397Z,40.22
2022-12-15T17:46:07.663Z,34.67
2022-12-15T17:48:53.946Z,31.85
2022-12-15T17:51:42.087Z,33.65
2022-12-15T17:54:28.444Z,34.55
2022-12-15T17:57:15.217Z,36.15
2022-12-15T18:00:02.372Z,37.28
2022-12-15T18:02:54.863Z,36.08
2022-12-15T18:05:41.432Z,28.73
2022-12-15T18:08:28.653Z,33.00
2022-12-15T18:11:16.720Z,33.53
2022-12-15T18:14:02.221Z,32.85
2022-12-15T18:16:49.209Z,31.00
2022-12-15T18:19:35.291Z,30.77
2022-12-15T18:22:24.012Z,29.30
2022-12-15T18:25:21.731Z,32.08
2022-12-15T18:28:35.538Z,31.08
2022-12-15T18:34:18.225Z,28.00
2022-12-15T18:37:14.053Z,26.80
2022-12-15T18:40:04.435Z,24.48
2022-12-15T18:42:51.106Z,24.40
2022-12-15T18:45:37.590Z,23.08
2022-12-15T18:48:30.528Z,23.80
2022-12-15T18:51:23.623Z,21.27
2022-12-15T18:54:23.146Z,21.58
2022-12-15T18:57:38.238Z,20.25
2022-12-15T19:00:27.969Z,20.52
2022-12-15T19:03:14.701Z,30.05
2022-12-15T19:06:02.066Z,31.63
2022-12-15T19:08:49.201Z,23.38
2022-12-15T19:11:34.872Z,24.65
2022-12-15T19:14:39.765Z,27.98
2022-12-15T19:17:43.703Z,36.13
2022-12-15T19:20:48.099Z,33.55
2022-12-15T19:23:34.023Z,30.25
2022-12-15T19:26:20.377Z,26.00
2022-12-15T19:29:21.980Z,31.48
2022-12-15T19:32:08.460Z,25.55
2022-12-15T19:34:54.613Z,24.65
2022-12-15T19:37:44.619Z,29.75
2022-12-15T19:40:32.868Z,31.33
2022-12-15T19:43:18.628Z,21.23
2022-12-15T19:46:04.842Z,19.60
2022-12-15T19:48:50.976Z,19.80
2022-12-15T19:51:37.530Z,18.30
2022-12-15T19:54:23.819Z,18.65
2022-12-15T19:57:17.922Z,17.88
2022-12-15T20:00:15.506Z,17.40
2022-12-15T20:03:02.117Z,17.50
2022-12-15T20:05:51.248Z,18.95
2022-12-15T20:08:40.710Z,23.10
2022-12-15T20:11:28.581Z,27.63
2022-12-15T20:14:17.478Z,29.83
2022-12-15T20:17:04.063Z,18.92
2022-12-15T20:19:49.599Z,17.85
2022-12-15T20:22:35.025Z,17.38
2022-12-15T20:25:27.317Z,21.27
2022-12-15T20:28:20.079Z,26.70
2022-12-15T20:31:06.052Z,24.48
2022-12-15T20:33:52.743Z,18.10
2022-12-15T20:36:38.909Z,17.20
2022-12-15T20:39:29.766Z,17.98
2022-12-15T20:42:18.842Z,21.58
2022-12-15T20:45:07.982Z,21.38
2022-12-15T20:47:59.053Z,20.65
2022-12-15T20:50:49.951Z,19.15
2022-12-15T20:53:35.433Z,18.55
2022-12-15T20:56:23.182Z,19.40
2022-12-15T20:59:08.865Z,18.08
2022-12-15T21:01:54.959Z,16.42
2022-12-15T21:04:43.376Z,73.43
2022-12-15T21:07:29.790Z,25.77
2022-12-15T21:10:17.907Z,67.70
2022-12-15T21:13:14.573Z,20.42
2022-12-15T21:16:01.209Z,16.98
2022-12-15T21:19:18.602Z,16.23
2022-12-15T21:21:56.091Z,15.95
2022-12-15T21:24:56.563Z,16.98
2022-12-15T21:27:42.705Z,16.88
2022-12-15T21:30:31.215Z,21.38
2022-12-15T21:33:17.676Z,37.30
2022-12-15T21:36:03.410Z,32.78
2022-12-15T21:38:51.917Z,20.88
2022-12-15T21:41:41.569Z,49.33
2022-12-15T21:44:27.363Z,33.50
2022-12-15T21:47:25.507Z,24.58
2022-12-15T21:50:11.733Z,33.72
2022-12-15T21:52:57.271Z,47.67
2022-12-15T21:55:45.934Z,31.30
2022-12-15T21:58:31.563Z,24.60
2022-12-15T22:01:20.953Z,25.88
2022-12-15T22:04:21.971Z,33.45
2022-12-15T22:07:14.477Z,49.40
2022-12-15T22:10:00.090Z,22.52
2022-12-15T22:12:55.908Z,16.02
2022-12-15T22:15:45.013Z,15.30
2022-12-15T22:18:30.936Z,14.95
2022-12-15T22:21:17.225Z,18.65
2022-12-15T22:24:03.032Z,13.63
2022-12-15T22:26:48.716Z,11.45
2022-12-15T22:29:34.417Z,12.60
2022-12-15T22:32:19.738Z,12.15
2022-12-15T22:35:16.237Z,13.32
2022-12-15T22:38:02.080Z,12.85
2022-12-15T22:40:51.301Z,14.68
2022-12-15T22:43:40.839Z,25.40
2022-12-15T22:46:26.752Z,14.68
2022-12-15T22:49:35.647Z,11.93
2022-12-15T22:52:21.560Z,18.05
2022-12-15T22:55:07.165Z,16.27
2022-12-15T22:58:08.280Z,13.80
2022-12-15T23:00:56.459Z,15.77
2022-12-15T23:03:42.273Z,21.80
2022-12-15T23:06:28.260Z,38.17
2022-12-15T23:09:14.077Z,22.48
2022-12-15T23:12:02.171Z,25.45
2022-12-15T23:15:06.166Z,20.48
2022-12-15T23:17:51.515Z,13.00
2022-12-15T23:20:37.647Z,13.15
2022-12-15T23:23:23.192Z,11.32
2022-12-15T23:26:08.584Z,13.23
2022-12-15T23:28:55.202Z,13.90
2022-12-15T23:31:40.766Z,13.85
2022-12-15T23:34:26.223Z,11.88
2022-12-15T23:37:12.024Z,10.80
2022-12-15T23:39:57.355Z,12.88
2022-12-15T23:42:43.148Z,12.25
2022-12-15T23:45:28.644Z,12.00
2022-12-15T23:48:15.054Z,13.55
2022-12-15T23:51:11.279Z,12.45
2022-12-15T23:53:57.038Z,14.65
2022-12-15T23:56:42.350Z,13.85
2022-12-15T23:59:28.437Z,14.30
